Abilene Regional Airport
KABI : now visible

Airfield :











YOU CAN JOIN US ON...

 
LOGIN :

Register | Disclaimer

   EN    FR    IT 

 









Legend :    VFR   Marginal VFR   IFR   Intensive IFR   Very Intensive IFR
Visi :
Ceiling :
>= 8 km
>= 3000ft
5 to 8 km
1000 to 3000 ft
1500m to 5 km
500 to 1000 ft
800 to 1500m
200 to 500 ft
< 800m
< 200 ft
Symbols :   Thunderstorms  Fog  Heavy snow  Heavy precipitations  Wind > 20 kt






- Airport Elevation : 1791 ft


KABI - Abilene Regional

CURRENT METAR :
  • 241852Z 06007KT 10SM SCT016 BKN021 OVC037 19/16 A2979 RMK AO2 SLP069 T01890156

EXPIRED METARs :
  • 241752Z 06008KT 6SM BR OVC020 17/15 A2980 RMK AO2 RAB16E45 SLP074 P0001 60009 T01670150 10206 20161 58005
  • 241722Z 06008KT 8SM -RA SCT008 OVC020 17/15 A2981 RMK AO2 RAB16 P0000 T01670150
  • 241712Z 06009KT 9SM BKN009 OVC020 16/15 A2981 RMK AO2 CIG 006V012 T01610150
  • 241652Z 06008KT 10SM SCT007 OVC020 16/15 A2981 RMK AO2 RAE36 SLP078 P0004 T01610150
  • 241649Z 06007G15KT 9SM SCT006 OVC019 16/15 A2981 RMK AO2 RAE36 P0004

TAF KABI
Valid from the 24 at 18:00 until the 25 at 18:00 UTC


241720Z 2418/2518 07011G18KT P6SM BKN015
FM242200 35011G18KT P6SM VCTS BKN060CB
TEMPO 2423/2501 VRB30G40KT 4SM TSRA
FM250300 35012G18KT P6SM BKN050
KZFW FIR / North America



MET'MAP, your aeronautical weather chart ! - Copyright ORBIFLY December 2007 - Disclaimer

ORBIFLY MET'MAP TEAM :

Programming & Development : Alexandra Zaïnal
Original concept : Baudouin d'Aumeries
Technical & hardware support : Manuel Goepfert
Assistance : Marc-Olivier Méhu

Contact : metmap@orbifly.com




SOURCES & CREDITS :

   NOAA       Earth
Advisory